ELY5138 LCPH-LLBG
Flight info
| Callsign | ELY5138 |
|---|---|
| Flight time | 0h 36m |
| Altitude | 25000 |
| Route | ESERI DCT IDAKU L35 PIKOG L609 ZUKKO |
| Aircraft | B738/M-SDGIJ1LRWY/SB1 |
Departure
| Time | 2026-04-22 07:27 |
|---|---|
| Airport | Paphos International Airport (LCPH) |
Arrival
| Time | 2026-04-22 08:04 |
|---|---|
| Airport | Ben Gurion International Airport (LLBG) |
| Time | Latitude | Longitude | Altitude | Speed | Heading |
|---|---|---|---|---|---|
| 2026-04-22 07:09 | 34.71262 | 32.48563 | 30 ft | 0 kts | 155° |
| 2026-04-22 07:18 | 34.71266 | 32.48561 | 30 ft | 2 kts | 155° |
| 2026-04-22 07:19 | 34.71280 | 32.48553 | 30 ft | 2 kts | 155° |
| 2026-04-22 07:19 | 34.71292 | 32.48547 | 30 ft | 0 kts | 155° |
| 2026-04-22 07:19 | 34.71302 | 32.48541 | 30 ft | 2 kts | 150° |
| 2026-04-22 07:19 | 34.71314 | 32.48531 | 30 ft | 2 kts | 141° |
| 2026-04-22 07:20 | 34.71326 | 32.48518 | 31 ft | 2 kts | 133° |
| 2026-04-22 07:20 | 34.71335 | 32.48504 | 31 ft | 2 kts | 125° |
| 2026-04-22 07:20 | 34.71343 | 32.48489 | 31 ft | 2 kts | 116° |
| 2026-04-22 07:20 | 34.71347 | 32.48478 | 31 ft | 0 kts | 111° |
| 2026-04-22 07:21 | 34.71347 | 32.48475 | 31 ft | 0 kts | 109° |
| 2026-04-22 07:23 | 34.71347 | 32.48476 | 31 ft | 1 kts | 109° |
| 2026-04-22 07:23 | 34.71350 | 32.48519 | 32 ft | 9 kts | 69° |
| 2026-04-22 07:23 | 34.71386 | 32.48618 | 33 ft | 16 kts | 65° |
| 2026-04-22 07:23 | 34.71444 | 32.48768 | 36 ft | 22 kts | 65° |
| 2026-04-22 07:24 | 34.71502 | 32.48925 | 38 ft | 12 kts | 64° |
| 2026-04-22 07:24 | 34.71531 | 32.48966 | 39 ft | 4 kts | 35° |
| 2026-04-22 07:24 | 34.71555 | 32.48979 | 39 ft | 5 kts | 22° |
| 2026-04-22 07:24 | 34.71611 | 32.49005 | 40 ft | 11 kts | 24° |
| 2026-04-22 07:25 | 34.71633 | 32.49075 | 42 ft | 8 kts | 103° |
| 2026-04-22 07:25 | 34.71604 | 32.49176 | 43 ft | 18 kts | 110° |
| 2026-04-22 07:25 | 34.71543 | 32.49375 | 44 ft | 31 kts | 110° |
| 2026-04-22 07:25 | 34.71463 | 32.49640 | 44 ft | 31 kts | 111° |
| 2026-04-22 07:26 | 34.71406 | 32.49793 | 44 ft | 11 kts | 136° |
| 2026-04-22 07:26 | 34.71393 | 32.49847 | 45 ft | 2 kts | 39° |
| 2026-04-22 07:26 | 34.71401 | 32.49842 | 45 ft | 1 kts | 303° |
| 2026-04-22 07:26 | 34.71408 | 32.49822 | 45 ft | 8 kts | 292° |
| 2026-04-22 07:27 | 34.71506 | 32.49501 | 44 ft | 76 kts | 291° |
| 2026-04-22 07:27 | 34.71769 | 32.48636 | 45 ft | 138 kts | 290° |
| 2026-04-22 07:27 | 34.72152 | 32.47385 | 233 ft | 170 kts | 290° |
| 2026-04-22 07:27 | 34.72561 | 32.46034 | 948 ft | 171 kts | 290° |
| 2026-04-22 07:28 | 34.73232 | 32.43280 | 2056 ft | 181 kts | 263° |
| 2026-04-22 07:28 | 34.72665 | 32.41901 | 2386 ft | 193 kts | 223° |
| 2026-04-22 07:28 | 34.71426 | 32.41116 | 2685 ft | 213 kts | 193° |
| 2026-04-22 07:29 | 34.69915 | 32.40895 | 3078 ft | 228 kts | 185° |
| 2026-04-22 07:29 | 34.68285 | 32.40758 | 3492 ft | 244 kts | 185° |
| 2026-04-22 07:29 | 34.66542 | 32.40705 | 3921 ft | 259 kts | 174° |
| 2026-04-22 07:29 | 34.64811 | 32.41409 | 4488 ft | 267 kts | 151° |
| 2026-04-22 07:30 | 34.63244 | 32.42636 | 5144 ft | 271 kts | 146° |
| 2026-04-22 07:30 | 34.61686 | 32.43954 | 5824 ft | 275 kts | 146° |
| 2026-04-22 07:30 | 34.60098 | 32.45242 | 6526 ft | 278 kts | 148° |
| 2026-04-22 07:30 | 34.58465 | 32.46509 | 7176 ft | 283 kts | 149° |
| 2026-04-22 07:31 | 34.56797 | 32.47772 | 7871 ft | 287 kts | 149° |
| 2026-04-22 07:31 | 34.55089 | 32.49054 | 8568 ft | 291 kts | 149° |
| 2026-04-22 07:31 | 34.53362 | 32.50350 | 9284 ft | 295 kts | 149° |
| 2026-04-22 07:31 | 34.51608 | 32.51667 | 9991 ft | 299 kts | 149° |
| 2026-04-22 07:32 | 34.49814 | 32.53015 | 10531 ft | 310 kts | 149° |
| 2026-04-22 07:32 | 34.47935 | 32.54427 | 10956 ft | 325 kts | 149° |
| 2026-04-22 07:32 | 34.45981 | 32.55895 | 11337 ft | 341 kts | 149° |
| 2026-04-22 07:32 | 34.43898 | 32.57458 | 11718 ft | 358 kts | 149° |
| 2026-04-22 07:33 | 34.41739 | 32.59078 | 12097 ft | 373 kts | 149° |
| 2026-04-22 07:33 | 34.39514 | 32.60748 | 12573 ft | 384 kts | 149° |
| 2026-04-22 07:33 | 34.37227 | 32.62463 | 13199 ft | 392 kts | 149° |
| 2026-04-22 07:33 | 34.34898 | 32.64210 | 13913 ft | 396 kts | 149° |
| 2026-04-22 07:34 | 34.32562 | 32.65961 | 14687 ft | 399 kts | 149° |
| 2026-04-22 07:34 | 34.30191 | 32.67737 | 15446 ft | 403 kts | 149° |
| 2026-04-22 07:34 | 34.27804 | 32.69524 | 16190 ft | 407 kts | 150° |
| 2026-04-22 07:34 | 34.25380 | 32.71337 | 16908 ft | 411 kts | 150° |
| 2026-04-22 07:35 | 34.22937 | 32.73162 | 17617 ft | 415 kts | 150° |
| 2026-04-22 07:35 | 34.20474 | 32.75001 | 18297 ft | 419 kts | 150° |
| 2026-04-22 07:35 | 34.18014 | 32.76837 | 18980 ft | 422 kts | 150° |
| 2026-04-22 07:35 | 34.15483 | 32.78724 | 19644 ft | 426 kts | 150° |
| 2026-04-22 07:36 | 34.12949 | 32.80611 | 20324 ft | 429 kts | 150° |
| 2026-04-22 07:36 | 34.10407 | 32.82502 | 20929 ft | 433 kts | 150° |
| 2026-04-22 07:36 | 34.07830 | 32.84420 | 21545 ft | 437 kts | 150° |
| 2026-04-22 07:36 | 34.05232 | 32.86351 | 22141 ft | 440 kts | 150° |
| 2026-04-22 07:37 | 34.02634 | 32.88280 | 22731 ft | 443 kts | 150° |
| 2026-04-22 07:37 | 34.00005 | 32.90232 | 23322 ft | 446 kts | 150° |
| 2026-04-22 07:37 | 33.97354 | 32.92198 | 23872 ft | 450 kts | 151° |
| 2026-04-22 07:37 | 33.94690 | 32.94172 | 24407 ft | 453 kts | 151° |
| 2026-04-22 07:38 | 33.92004 | 32.96162 | 24939 ft | 455 kts | 151° |
| 2026-04-22 07:38 | 33.89308 | 32.98156 | 25026 ft | 456 kts | 151° |
| 2026-04-22 07:38 | 33.86596 | 33.00165 | 25032 ft | 450 kts | 151° |
| 2026-04-22 07:38 | 33.83935 | 33.02135 | 25028 ft | 449 kts | 151° |
| 2026-04-22 07:39 | 33.81262 | 33.04111 | 25026 ft | 451 kts | 151° |
| 2026-04-22 07:39 | 33.78602 | 33.06074 | 25031 ft | 452 kts | 151° |
| 2026-04-22 07:39 | 33.75924 | 33.08049 | 25027 ft | 451 kts | 151° |
| 2026-04-22 07:39 | 33.73257 | 33.10013 | 25027 ft | 451 kts | 151° |
| 2026-04-22 07:40 | 33.70553 | 33.12005 | 25028 ft | 452 kts | 151° |
| 2026-04-22 07:40 | 33.67879 | 33.13973 | 25027 ft | 451 kts | 151° |
| 2026-04-22 07:40 | 33.65195 | 33.15947 | 25027 ft | 452 kts | 151° |
| 2026-04-22 07:40 | 33.62535 | 33.17902 | 25030 ft | 452 kts | 151° |
| 2026-04-22 07:41 | 33.59845 | 33.19878 | 25027 ft | 451 kts | 151° |
| 2026-04-22 07:41 | 33.57192 | 33.21824 | 25030 ft | 451 kts | 151° |
| 2026-04-22 07:41 | 33.54513 | 33.23788 | 25030 ft | 451 kts | 151° |
| 2026-04-22 07:41 | 33.51831 | 33.25753 | 25031 ft | 451 kts | 151° |
| 2026-04-22 07:42 | 33.49140 | 33.27723 | 25034 ft | 451 kts | 151° |
| 2026-04-22 07:42 | 33.46476 | 33.29671 | 25031 ft | 452 kts | 151° |
| 2026-04-22 07:42 | 33.43799 | 33.31627 | 25029 ft | 451 kts | 151° |
| 2026-04-22 07:42 | 33.41109 | 33.33591 | 25033 ft | 451 kts | 151° |
| 2026-04-22 07:43 | 33.38445 | 33.35535 | 25034 ft | 452 kts | 151° |
| 2026-04-22 07:43 | 33.35752 | 33.37499 | 25031 ft | 451 kts | 151° |
| 2026-04-22 07:43 | 33.33091 | 33.39439 | 25033 ft | 451 kts | 151° |
| 2026-04-22 07:43 | 33.30384 | 33.41410 | 25032 ft | 451 kts | 151° |
| 2026-04-22 07:44 | 33.27712 | 33.43355 | 25036 ft | 452 kts | 151° |
| 2026-04-22 07:44 | 33.25028 | 33.45307 | 25035 ft | 451 kts | 151° |
| 2026-04-22 07:44 | 33.22360 | 33.47247 | 24932 ft | 449 kts | 151° |
| 2026-04-22 07:44 | 33.19718 | 33.49168 | 24662 ft | 439 kts | 151° |
| 2026-04-22 07:45 | 33.17133 | 33.51048 | 24400 ft | 427 kts | 151° |
| 2026-04-22 07:45 | 33.14653 | 33.52851 | 24142 ft | 416 kts | 151° |
| 2026-04-22 07:45 | 33.12196 | 33.54635 | 23879 ft | 406 kts | 151° |
| 2026-04-22 07:45 | 33.09794 | 33.56376 | 23616 ft | 402 kts | 151° |
| 2026-04-22 07:46 | 33.07424 | 33.58090 | 23361 ft | 404 kts | 151° |
| 2026-04-22 07:46 | 33.05014 | 33.59830 | 23108 ft | 404 kts | 151° |
| 2026-04-22 07:46 | 33.02618 | 33.61560 | 22849 ft | 401 kts | 151° |
| 2026-04-22 07:46 | 33.00236 | 33.63279 | 22591 ft | 399 kts | 151° |
| 2026-04-22 07:47 | 32.97865 | 33.64990 | 22339 ft | 398 kts | 151° |
| 2026-04-22 07:47 | 32.95506 | 33.66690 | 22083 ft | 397 kts | 152° |
| 2026-04-22 07:47 | 32.93154 | 33.68385 | 21796 ft | 394 kts | 151° |
| 2026-04-22 07:47 | 32.90780 | 33.70095 | 21540 ft | 399 kts | 151° |
| 2026-04-22 07:48 | 32.88354 | 33.71836 | 21301 ft | 421 kts | 151° |
| 2026-04-22 07:48 | 32.85783 | 33.73679 | 20967 ft | 437 kts | 151° |
| 2026-04-22 07:48 | 32.83160 | 33.75560 | 20312 ft | 439 kts | 150° |
| 2026-04-22 07:48 | 32.80580 | 33.77415 | 19633 ft | 436 kts | 150° |
| 2026-04-22 07:49 | 32.77990 | 33.79277 | 18943 ft | 434 kts | 150° |
| 2026-04-22 07:49 | 32.75430 | 33.81118 | 18254 ft | 431 kts | 150° |
| 2026-04-22 07:49 | 32.72879 | 33.82951 | 17557 ft | 429 kts | 150° |
| 2026-04-22 07:49 | 32.70311 | 33.84793 | 16835 ft | 427 kts | 150° |
| 2026-04-22 07:50 | 32.67800 | 33.86593 | 16132 ft | 425 kts | 150° |
| 2026-04-22 07:50 | 32.65286 | 33.88394 | 15446 ft | 422 kts | 150° |
| 2026-04-22 07:50 | 32.62771 | 33.90193 | 14762 ft | 419 kts | 150° |
| 2026-04-22 07:50 | 32.60297 | 33.91961 | 14082 ft | 416 kts | 149° |
| 2026-04-22 07:51 | 32.57885 | 33.93765 | 13386 ft | 399 kts | 146° |
| 2026-04-22 07:51 | 32.55714 | 33.95683 | 13038 ft | 382 kts | 140° |
| 2026-04-22 07:51 | 32.53743 | 33.97798 | 12988 ft | 387 kts | 136° |
| 2026-04-22 07:51 | 32.51870 | 34.00042 | 12982 ft | 385 kts | 134° |
| 2026-04-22 07:52 | 32.50034 | 34.02359 | 12831 ft | 388 kts | 133° |
| 2026-04-22 07:52 | 32.48198 | 34.04714 | 12496 ft | 384 kts | 133° |
| 2026-04-22 07:52 | 32.46410 | 34.07006 | 11967 ft | 379 kts | 133° |
| 2026-04-22 07:52 | 32.44626 | 34.09275 | 11388 ft | 377 kts | 133° |
| 2026-04-22 07:53 | 32.42887 | 34.11557 | 10977 ft | 370 kts | 129° |
| 2026-04-22 07:53 | 32.41341 | 34.14000 | 10749 ft | 366 kts | 124° |
| 2026-04-22 07:53 | 32.39970 | 34.16449 | 10591 ft | 352 kts | 122° |
| 2026-04-22 07:53 | 32.38694 | 34.18838 | 10479 ft | 337 kts | 122° |
| 2026-04-22 07:54 | 32.37460 | 34.21153 | 10344 ft | 324 kts | 122° |
| 2026-04-22 07:54 | 32.36263 | 34.23358 | 10200 ft | 312 kts | 123° |
| 2026-04-22 07:54 | 32.35089 | 34.25485 | 9890 ft | 307 kts | 123° |
| 2026-04-22 07:54 | 32.33920 | 34.27571 | 9474 ft | 306 kts | 123° |
| 2026-04-22 07:55 | 32.32753 | 34.29637 | 9088 ft | 304 kts | 123° |
| 2026-04-22 07:55 | 32.31580 | 34.31708 | 8702 ft | 302 kts | 123° |
| 2026-04-22 07:55 | 32.30414 | 34.33763 | 8315 ft | 300 kts | 123° |
| 2026-04-22 07:55 | 32.29260 | 34.35798 | 7931 ft | 298 kts | 123° |
| 2026-04-22 07:56 | 32.28106 | 34.37833 | 7542 ft | 296 kts | 123° |
| 2026-04-22 07:56 | 32.26960 | 34.39853 | 7170 ft | 294 kts | 123° |
| 2026-04-22 07:56 | 32.25834 | 34.41840 | 6781 ft | 292 kts | 123° |
| 2026-04-22 07:56 | 32.24706 | 34.43829 | 6408 ft | 290 kts | 123° |
| 2026-04-22 07:57 | 32.23582 | 34.45808 | 6033 ft | 288 kts | 123° |
| 2026-04-22 07:57 | 32.22472 | 34.47762 | 5658 ft | 286 kts | 122° |
| 2026-04-22 07:57 | 32.21375 | 34.49691 | 5284 ft | 284 kts | 123° |
| 2026-04-22 07:57 | 32.20161 | 34.51510 | 4918 ft | 282 kts | 130° |
| 2026-04-22 07:58 | 32.18896 | 34.53265 | 4550 ft | 279 kts | 126° |
| 2026-04-22 07:58 | 32.17775 | 34.55137 | 4255 ft | 275 kts | 121° |
| 2026-04-22 07:58 | 32.16803 | 34.57035 | 4094 ft | 265 kts | 118° |
| 2026-04-22 07:58 | 32.15886 | 34.58887 | 3921 ft | 257 kts | 118° |
| 2026-04-22 07:59 | 32.14983 | 34.60661 | 3651 ft | 254 kts | 119° |
| 2026-04-22 07:59 | 32.14057 | 34.62440 | 3347 ft | 252 kts | 120° |
| 2026-04-22 07:59 | 32.13131 | 34.64214 | 3090 ft | 257 kts | 120° |
| 2026-04-22 07:59 | 32.12198 | 34.66012 | 2979 ft | 258 kts | 120° |
| 2026-04-22 08:00 | 32.11253 | 34.67840 | 2982 ft | 262 kts | 120° |
| 2026-04-22 08:00 | 32.10303 | 34.69671 | 2982 ft | 262 kts | 120° |
| 2026-04-22 08:00 | 32.09369 | 34.71463 | 2958 ft | 245 kts | 120° |
| 2026-04-22 08:00 | 32.08504 | 34.73124 | 2749 ft | 234 kts | 120° |
| 2026-04-22 08:01 | 32.07677 | 34.74715 | 2476 ft | 225 kts | 120° |
| 2026-04-22 08:01 | 32.06870 | 34.76263 | 2169 ft | 213 kts | 120° |
| 2026-04-22 08:01 | 32.06126 | 34.77687 | 1863 ft | 195 kts | 120° |
| 2026-04-22 08:01 | 32.05450 | 34.78984 | 1641 ft | 178 kts | 120° |
| 2026-04-22 08:02 | 32.04834 | 34.80164 | 1448 ft | 162 kts | 120° |
| 2026-04-22 08:02 | 32.04254 | 34.81277 | 1176 ft | 156 kts | 119° |
| 2026-04-22 08:02 | 32.03689 | 34.82361 | 1000 ft | 156 kts | 120° |
| 2026-04-22 08:02 | 32.03115 | 34.83458 | 781 ft | 159 kts | 120° |
| 2026-04-22 08:03 | 32.02541 | 34.84553 | 572 ft | 157 kts | 121° |
| 2026-04-22 08:03 | 32.01955 | 34.85638 | 416 ft | 151 kts | 119° |
| 2026-04-22 08:03 | 32.01404 | 34.86720 | 177 ft | 157 kts | 121° |
| 2026-04-22 08:03 | 32.00864 | 34.87755 | 138 ft | 124 kts | 123° |
| 2026-04-22 08:04 | 32.00570 | 34.88318 | 138 ft | 56 kts | 123° |
| 2026-04-22 08:04 | 32.00407 | 34.88573 | 138 ft | 20 kts | 139° |
| 2026-04-22 08:04 | 32.00320 | 34.88637 | 139 ft | 13 kts | 151° |
| 2026-04-22 08:04 | 32.00233 | 34.88684 | 139 ft | 13 kts | 161° |
| 2026-04-22 08:05 | 32.00145 | 34.88705 | 139 ft | 12 kts | 186° |
| 2026-04-22 08:05 | 32.00098 | 34.88645 | 139 ft | 10 kts | 279° |
| 2026-04-22 08:05 | 32.00134 | 34.88565 | 139 ft | 12 kts | 302° |
| 2026-04-22 08:05 | 32.00190 | 34.88460 | 139 ft | 18 kts | 301° |
| 2026-04-22 08:06 | 32.00266 | 34.88313 | 139 ft | 24 kts | 301° |
| 2026-04-22 08:06 | 32.00363 | 34.88127 | 138 ft | 27 kts | 301° |
| 2026-04-22 08:06 | 32.00428 | 34.88001 | 139 ft | 11 kts | 301° |
| 2026-04-22 08:06 | 32.00451 | 34.87957 | 139 ft | 5 kts | 301° |
| 2026-04-22 08:07 | 32.00482 | 34.87897 | 139 ft | 11 kts | 302° |
| 2026-04-22 08:07 | 32.00536 | 34.87794 | 139 ft | 16 kts | 301° |
| 2026-04-22 08:07 | 32.00567 | 34.87694 | 138 ft | 11 kts | 255° |
| 2026-04-22 08:07 | 32.00526 | 34.87617 | 138 ft | 10 kts | 235° |
| 2026-04-22 08:08 | 32.00485 | 34.87544 | 138 ft | 10 kts | 237° |
| 2026-04-22 08:08 | 32.00438 | 34.87480 | 138 ft | 9 kts | 224° |
| 2026-04-22 08:08 | 32.00421 | 34.87461 | 138 ft | 0 kts | 223° |